Time;durP1;ratioP1;P1;durP2;ratioP2;P2;SDS_P1;SDS_P2;PMS_P1;PMS_P2;Temp;Humidity;BMP_temperature;BMP_pressure;BME280_temperature;BME280_humidity;BME280_pressure;Samples;Min_cycle;Max_cycle;Signal;HPM_P1;HPM_P2
2023/04/15 00:01:10;;;;;;;8.65;4.10;;;;;;;7.62;63.94;100676.00;5128018;27;20043;-70
2023/04/15 00:03:38;;;;;;;11.40;4.65;;;;;;;7.60;64.14;100680.41;5115200;27;20047;-70
2023/04/15 00:06:05;;;;;;;9.15;4.32;;;;;;;7.56;64.32;100677.00;5146840;27;20038;-70
2023/04/15 00:08:33;;;;;;;6.65;4.20;;;;;;;7.54;64.48;100675.31;5127366;27;20093;-70
2023/04/15 00:11:02;;;;;;;10.40;4.70;;;;;;;7.50;64.36;100669.28;5126123;27;20665;-70
2023/04/15 00:13:29;;;;;;;8.40;4.38;;;;;;;7.49;64.80;100664.03;5119986;27;20048;-70
2023/04/15 00:15:57;;;;;;;8.07;4.28;;;;;;;7.48;64.89;100667.56;5138572;27;20953;-70
2023/04/15 00:18:24;;;;;;;7.57;4.03;;;;;;;7.44;65.17;100672.88;5150165;27;20031;-71
2023/04/15 00:20:51;;;;;;;9.48;4.47;;;;;;;7.42;65.31;100669.41;5122227;27;20093;-70
2023/04/15 00:23:18;;;;;;;6.75;4.20;;;;;;;7.40;65.24;100670.34;5127383;27;20176;-70
2023/04/15 00:25:45;;;;;;;8.63;4.50;;;;;;;7.40;65.69;100665.09;5120836;27;20040;-70
2023/04/15 00:28:13;;;;;;;5.75;4.30;;;;;;;7.38;65.64;100670.34;5122026;27;20039;-70
2023/04/15 00:30:40;;;;;;;7.22;4.10;;;;;;;7.37;65.64;100671.28;5148897;27;20035;-71
2023/04/15 00:33:08;;;;;;;7.55;4.10;;;;;;;7.35;65.66;100669.56;5148298;27;20047;-70
2023/04/15 00:35:36;;;;;;;8.25;4.35;;;;;;;7.33;65.78;100672.22;5126757;27;20039;-70
2023/04/15 00:38:05;;;;;;;9.77;4.18;;;;;;;7.30;66.02;100667.91;5127191;27;20081;-71
2023/04/15 00:40:32;;;;;;;6.78;4.50;;;;;;;7.28;66.24;100661.81;5113435;27;20047;-70
2023/04/15 00:42:59;;;;;;;7.65;4.40;;;;;;;7.26;66.19;100671.47;5139199;27;20046;-69
2023/04/15 00:45:29;;;;;;;7.75;4.25;;;;;;;7.21;66.47;100660.22;5123056;27;20035;-69
2023/04/15 00:47:57;;;;;;;8.45;4.45;;;;;;;7.19;66.45;100671.59;5139242;27;20046;-69
2023/04/15 00:50:24;;;;;;;8.50;4.28;;;;;;;7.15;66.27;100666.44;5116582;27;20040;-69
2023/04/15 00:52:51;;;;;;;6.55;4.30;;;;;;;7.13;66.79;100668.22;5148941;27;20044;-69
2023/04/15 00:55:18;;;;;;;8.57;4.50;;;;;;;7.11;66.82;100670.00;5145352;27;20470;-70
2023/04/15 00:57:45;;;;;;;9.65;4.80;;;;;;;7.07;67.01;100668.31;5128673;27;20043;-71
2023/04/15 01:00:19;;;;;;;8.20;4.32;;;;;;;7.02;67.06;100667.56;5130410;27;20031;-70
2023/04/15 01:02:51;;;;;;;7.85;4.40;;;;;;;7.00;67.38;100671.94;5149802;27;20110;-70
2023/04/15 01:05:19;;;;;;;8.25;4.28;;;;;;;6.95;67.37;100671.19;5120444;27;20802;-70
2023/04/15 01:07:47;;;;;;;8.02;4.53;;;;;;;6.94;67.39;100666.84;5114738;27;20035;-70
2023/04/15 01:10:15;;;;;;;7.40;4.40;;;;;;;6.90;67.32;100667.78;5125139;27;20036;-70
2023/04/15 01:12:43;;;;;;;6.82;4.43;;;;;;;6.88;67.91;100666.94;5116149;27;20031;-71
2023/04/15 01:15:10;;;;;;;7.35;4.53;;;;;;;6.84;68.06;100674.88;5118417;27;20134;-70
2023/04/15 01:17:38;;;;;;;8.77;5.03;;;;;;;6.81;67.98;100674.91;5148113;27;20042;-71
2023/04/15 01:20:11;;;;;;;6.47;4.72;;;;;;;6.81;68.39;100679.28;5137466;27;20039;-70
2023/04/15 01:22:39;;;;;;;6.93;4.68;;;;;;;6.79;68.73;100675.84;5124329;27;20038;-71
2023/04/15 01:25:18;;;;;;;7.20;4.57;;;;;;;6.78;68.85;100676.72;5104085;27;20517;-70
2023/04/15 01:27:46;;;;;;;7.25;4.72;;;;;;;6.76;69.07;100676.75;5115616;27;20054;-70
2023/04/15 01:30:14;;;;;;;6.85;4.97;;;;;;;6.77;69.24;100677.59;5130157;27;20039;-70
2023/04/15 01:32:41;;;;;;;8.25;4.88;;;;;;;6.74;69.30;100677.66;5093640;27;20055;-70
2023/04/15 01:35:08;;;;;;;7.22;4.80;;;;;;;6.72;69.50;100682.94;5140320;27;20059;-70
2023/04/15 01:37:36;;;;;;;7.10;4.80;;;;;;;6.72;69.72;100679.41;5128017;27;20043;-70
2023/04/15 01:40:04;;;;;;;8.82;5.40;;;;;;;6.70;70.31;100682.06;5146575;27;20049;-70
2023/04/15 01:42:31;;;;;;;9.07;5.50;;;;;;;6.67;70.22;100680.38;5124511;27;20928;-71
2023/04/15 01:44:58;;;;;;;10.63;5.28;;;;;;;6.67;70.50;100682.13;5116727;27;20039;-70
2023/04/15 01:47:25;;;;;;;7.68;5.47;;;;;;;6.64;70.46;100679.56;5125811;27;20031;-70
2023/04/15 01:49:53;;;;;;;7.45;5.35;;;;;;;6.63;70.88;100691.78;5121758;27;20093;-68
2023/04/15 01:52:21;;;;;;;7.28;5.38;;;;;;;6.63;71.11;100683.09;5126349;27;20068;-68
2023/04/15 01:54:48;;;;;;;7.30;5.30;;;;;;;6.63;71.34;100683.94;5136159;27;20527;-68
2023/04/15 01:57:15;;;;;;;8.55;5.35;;;;;;;6.62;71.29;100676.09;5113873;27;20043;-69
2023/04/15 01:59:42;;;;;;;8.60;5.70;;;;;;;6.62;71.52;100676.09;5129686;27;20039;-69
2023/04/15 02:02:09;;;;;;;10.45;5.75;;;;;;;6.59;71.49;100681.38;5147090;27;20497;-69
2023/04/15 02:04:36;;;;;;;7.45;5.43;;;;;;;6.54;71.60;100676.22;5126642;27;20036;-70
2023/04/15 02:07:03;;;;;;;9.05;5.80;;;;;;;6.51;71.86;100676.28;5098062;27;20040;-71
2023/04/15 02:09:30;;;;;;;10.13;5.75;;;;;;;6.47;72.28;100672.84;5135176;27;20481;-70
2023/04/15 02:11:58;;;;;;;10.15;5.70;;;;;;;6.41;72.11;100683.41;5114973;27;20085;-69
2023/04/15 02:14:25;;;;;;;10.85;6.13;;;;;;;6.39;72.21;100685.19;5117078;27;20489;-69
2023/04/15 02:16:53;;;;;;;8.52;5.90;;;;;;;6.36;72.53;100688.72;5111171;27;20036;-70
2023/04/15 02:19:20;;;;;;;7.10;5.70;;;;;;;6.32;72.52;100686.19;5120986;27;20046;-70
2023/04/15 02:21:47;;;;;;;8.45;5.68;;;;;;;6.28;72.77;100676.63;5121423;27;20040;-70
2023/04/15 02:24:17;;;;;;;7.22;6.07;;;;;;;6.24;72.85;100685.44;5117287;27;20043;-70
2023/04/15 02:26:44;;;;;;;8.77;6.07;;;;;;;6.24;73.40;100680.19;5146709;27;20050;-70
2023/04/15 02:29:11;;;;;;;8.90;6.53;;;;;;;6.22;73.48;100682.81;5127241;27;20489;-70
2023/04/15 02:31:41;;;;;;;8.18;6.15;;;;;;;6.21;73.70;100681.09;5127572;27;20044;-69
2023/04/15 02:34:08;;;;;;;8.38;6.15;;;;;;;6.19;73.97;100685.50;5124640;27;20036;-70
2023/04/15 02:36:35;;;;;;;7.72;6.22;;;;;;;6.18;74.08;100689.00;5143883;27;20043;-69
2023/04/15 02:39:04;;;;;;;8.82;5.97;;;;;;;6.20;74.36;100695.09;5093340;27;20051;-69
2023/04/15 02:41:31;;;;;;;10.35;6.10;;;;;;;6.17;74.31;100693.38;5135695;27;20043;-69
2023/04/15 02:43:58;;;;;;;10.95;6.03;;;;;;;6.17;74.61;100698.59;5145775;27;20035;-69
2023/04/15 02:46:27;;;;;;;9.32;6.22;;;;;;;6.19;74.81;100702.06;5109352;27;20107;-70
2023/04/15 02:48:54;;;;;;;9.98;6.53;;;;;;;6.17;74.65;100698.59;5101087;27;20051;-69
2023/04/15 02:51:23;;;;;;;8.40;6.65;;;;;;;6.17;74.95;100708.22;5125941;27;20266;-69
2023/04/15 02:53:50;;;;;;;9.50;5.93;;;;;;;6.18;75.10;100696.88;5147302;27;20030;-69
2023/04/15 02:56:18;;;;;;;8.43;6.40;;;;;;;6.18;75.36;100710.81;5112294;27;20101;-68
2023/04/15 02:58:46;;;;;;;9.63;6.28;;;;;;;6.15;75.10;100712.59;5111287;27;20047;-68
2023/04/15 03:01:13;;;;;;;10.27;6.25;;;;;;;6.11;75.50;100711.78;5111817;27;20466;-68
2023/04/15 03:03:41;;;;;;;10.43;6.20;;;;;;;6.11;75.66;100713.53;5128732;27;20119;-68
2023/04/15 03:06:08;;;;;;;8.20;6.10;;;;;;;6.10;75.90;100707.44;5147487;27;20042;-68
2023/04/15 03:08:36;;;;;;;8.60;6.50;;;;;;;6.10;75.73;100715.28;5127522;27;20930;-69
2023/04/15 03:11:04;;;;;;;7.97;6.05;;;;;;;6.10;75.60;100720.53;5145968;27;20127;-70
2023/04/15 03:13:32;;;;;;;11.50;6.65;;;;;;;6.12;76.26;100720.50;5124747;27;20067;-69
2023/04/15 03:16:09;;;;;;;7.60;6.60;;;;;;;6.12;76.33;100717.88;5119510;27;20043;-68
2023/04/15 03:18:37;;;;;;;9.85;6.90;;;;;;;6.11;76.44;100717.03;5107503;27;20047;-69
2023/04/15 03:21:05;;;;;;;10.63;7.30;;;;;;;6.09;76.36;100720.56;5136601;27;20051;-68
2023/04/15 03:23:35;;;;;;;9.65;6.85;;;;;;;6.06;76.38;100717.09;5123778;27;20700;-68
2023/04/15 03:26:03;;;;;;;10.93;6.90;;;;;;;6.04;76.52;100731.94;5116993;27;20514;-68
2023/04/15 03:28:32;;;;;;;9.73;6.95;;;;;;;6.03;76.64;100731.97;5120524;27;20768;-68
2023/04/15 03:31:00;;;;;;;10.75;6.40;;;;;;;6.02;76.93;100730.22;5130288;27;20035;-68
2023/04/15 03:33:27;;;;;;;10.45;6.93;;;;;;;6.04;76.98;100742.41;5117386;27;20070;-68
2023/04/15 03:35:54;;;;;;;12.20;7.38;;;;;;;6.04;77.31;100745.03;5114862;27;20083;-68
2023/04/15 03:38:21;;;;;;;9.63;7.20;;;;;;;6.04;77.30;100737.16;5130231;27;20052;-69
2023/04/15 03:40:48;;;;;;;9.98;7.63;;;;;;;6.04;77.56;100744.16;5141742;27;20036;-70
2023/04/15 03:43:15;;;;;;;11.18;7.47;;;;;;;6.02;77.39;100738.94;5136081;27;20039;-69
2023/04/15 03:45:43;;;;;;;8.85;7.15;;;;;;;5.99;77.44;100741.63;5124185;27;20055;-69
2023/04/15 03:48:10;;;;;;;10.48;7.32;;;;;;;5.97;77.85;100735.50;5136992;27;20473;-70
2023/04/15 03:50:45;;;;;;;10.88;7.32;;;;;;;5.97;77.89;100745.97;5148874;27;20252;-70
2023/04/15 03:53:12;;;;;;;10.63;7.82;;;;;;;5.96;77.96;100752.06;5149718;27;20039;-70
2023/04/15 03:55:39;;;;;;;10.18;7.20;;;;;;;5.90;77.87;100754.78;5142393;27;20040;-69
2023/04/15 03:58:06;;;;;;;9.30;7.32;;;;;;;5.85;78.13;100756.56;5124672;27;20843;-70
2023/04/15 04:00:33;;;;;;;10.48;7.40;;;;;;;5.81;78.09;100765.34;5146895;27;20035;-68
2023/04/15 04:03:00;;;;;;;9.20;7.15;;;;;;;5.75;78.51;100764.53;5140417;27;20532;-69
2023/04/15 04:05:27;;;;;;;10.38;7.85;;;;;;;5.73;78.66;100763.69;5105493;27;20050;-69
2023/04/15 04:07:54;;;;;;;8.95;7.47;;;;;;;5.70;78.92;100765.47;5138789;27;20080;-69
2023/04/15 04:10:21;;;;;;;9.75;7.05;;;;;;;5.66;79.02;100769.00;5149460;27;20522;-69
2023/04/15 04:12:48;;;;;;;10.35;7.72;;;;;;;5.61;79.10;100771.66;5148076;27;20062;-69
2023/04/15 04:15:15;;;;;;;10.93;7.85;;;;;;;5.56;79.16;100776.09;5119526;27;20507;-68
2023/04/15 04:17:42;;;;;;;11.45;8.00;;;;;;;5.52;79.35;100779.59;5113352;27;20040;-68
2023/04/15 04:20:11;;;;;;;10.30;7.22;;;;;;;5.49;79.63;100775.28;5121800;27;20163;-70
2023/04/15 04:22:40;;;;;;;9.35;8.13;;;;;;;5.46;79.94;100785.75;5150028;27;20035;-70
2023/04/15 04:25:09;;;;;;;10.18;7.70;;;;;;;5.43;80.10;100785.81;5149408;27;20035;-69
2023/04/15 04:27:36;;;;;;;9.43;7.90;;;;;;;5.38;80.15;100785.84;5132205;27;20039;-69
2023/04/15 04:30:05;;;;;;;9.55;8.00;;;;;;;5.35;80.36;100788.50;5142671;27;20044;-70
2023/04/15 04:32:32;;;;;;;13.00;8.25;;;;;;;5.32;80.74;100798.97;5130959;27;20074;-69
2023/04/15 04:34:59;;;;;;;10.43;7.57;;;;;;;5.28;80.65;100800.75;5127200;27;20043;-68
2023/04/15 04:37:26;;;;;;;11.70;8.02;;;;;;;5.24;80.99;100806.00;5151787;27;20533;-68
2023/04/15 04:39:53;;;;;;;10.82;7.55;;;;;;;5.21;81.21;100806.91;5146429;27;20051;-68
2023/04/15 04:42:21;;;;;;;11.18;7.85;;;;;;;5.21;81.77;100800.81;5130365;27;20039;-68
2023/04/15 04:44:48;;;;;;;10.00;7.97;;;;;;;5.21;81.82;100808.66;5138457;27;20032;-68
2023/04/15 04:47:15;;;;;;;9.93;8.32;;;;;;;5.20;81.99;100820.88;5125453;27;20070;-68
2023/04/15 04:49:42;;;;;;;10.23;7.78;;;;;;;5.18;81.85;100817.38;5147346;27;20055;-69
2023/04/15 04:52:09;;;;;;;10.15;8.07;;;;;;;5.17;81.95;100820.03;5146079;27;20538;-69
2023/04/15 04:54:36;;;;;;;9.18;8.15;;;;;;;5.19;82.18;100823.50;5130599;27;20043;-69
2023/04/15 04:57:03;;;;;;;9.35;7.82;;;;;;;5.17;82.04;100822.66;5148575;27;20024;-69
2023/04/15 04:59:30;;;;;;;9.95;7.90;;;;;;;5.19;82.28;100828.72;5149680;27;20039;-68
2023/04/15 05:01:57;;;;;;;11.07;8.32;;;;;;;5.18;82.22;100827.84;5147048;27;20793;-69
2023/04/15 05:04:25;;;;;;;11.55;8.52;;;;;;;5.25;82.41;100841.75;5149380;27;20474;-69
2023/04/15 05:06:52;;;;;;;10.30;8.65;;;;;;;5.26;82.31;100841.72;5137447;27;20175;-69
2023/04/15 05:09:19;;;;;;;11.30;8.27;;;;;;;5.33;81.96;100839.06;5118678;27;20050;-69
2023/04/15 05:11:46;;;;;;;11.57;8.15;;;;;;;5.43;81.74;100845.94;5149637;27;20048;-68
2023/04/15 05:14:13;;;;;;;11.32;8.18;;;;;;;5.54;81.53;100851.06;5129683;27;20034;-69
2023/04/15 05:16:40;;;;;;;12.00;8.45;;;;;;;5.74;80.99;100856.13;5135441;27;20061;-69
2023/04/15 05:19:07;;;;;;;10.00;8.18;;;;;;;6.13;80.02;100855.72;5152003;27;20031;-70
2023/04/15 05:21:34;;;;;;;10.20;8.43;;;;;;;6.72;78.10;100858.47;5136003;27;20570;-69
2023/04/15 05:24:05;;;;;;;10.82;7.47;;;;;;;7.78;74.83;100855.00;5157547;27;20039;-70
2023/04/15 05:26:32;;;;;;;8.63;7.00;;;;;;;8.53;71.67;100851.81;5153592;27;20027;-70
2023/04/15 05:29:00;;;;;;;9.38;7.25;;;;;;;8.77;70.05;100862.69;5138761;27;20049;-69
2023/04/15 05:31:27;;;;;;;9.90;7.45;;;;;;;8.62;70.19;100863.91;5151417;27;20114;-69
2023/04/15 05:33:55;;;;;;;8.88;7.18;;;;;;;8.12;71.03;100864.00;5134951;27;20039;-68
2023/04/15 05:36:22;;;;;;;9.05;7.45;;;;;;;7.61;72.69;100865.81;5148758;27;20042;-69
2023/04/15 05:38:49;;;;;;;11.52;7.50;;;;;;;7.29;74.24;100872.47;5137535;27;20055;-70
2023/04/15 05:41:16;;;;;;;11.68;8.00;;;;;;;7.10;75.10;100878.00;5138576;27;20991;-70
2023/04/15 05:43:46;;;;;;;10.85;7.55;;;;;;;7.04;75.68;100879.84;5121049;27;20044;-70
2023/04/15 05:46:13;;;;;;;9.98;8.07;;;;;;;7.02;75.67;100882.50;5149114;27;20043;-68
2023/04/15 05:48:40;;;;;;;11.90;8.57;;;;;;;7.08;76.47;100886.78;5150966;27;20041;-70
2023/04/15 05:51:08;;;;;;;10.10;8.25;;;;;;;7.14;76.40;100895.44;5157009;27;20074;-68
2023/04/15 05:53:35;;;;;;;10.20;8.32;;;;;;;7.24;76.26;100885.66;5151544;27;20038;-68
2023/04/15 05:56:02;;;;;;;10.30;8.52;;;;;;;7.34;76.18;100896.00;5157365;27;20104;-69
2023/04/15 05:58:32;;;;;;;11.90;8.48;;;;;;;7.44;76.03;100901.09;5156109;27;20038;-68
2023/04/15 06:01:05;;;;;;;13.48;8.80;;;;;;;7.52;75.99;100900.06;5134425;27;20787;-70
2023/04/15 06:03:32;;;;;;;12.85;8.70;;;;;;;7.66;75.96;100910.34;5148412;27;20597;-70
2023/04/15 06:06:00;;;;;;;11.02;8.55;;;;;;;7.71;75.82;100913.75;5135452;27;20046;-68
2023/04/15 06:08:27;;;;;;;11.15;8.38;;;;;;;7.75;76.18;100911.06;5122099;27;20613;-69
2023/04/15 06:10:54;;;;;;;10.65;8.52;;;;;;;7.83;75.82;100917.94;5150740;27;20284;-69
2023/04/15 06:13:21;;;;;;;9.93;8.02;;;;;;;7.98;76.92;100919.41;5145733;27;20083;-68
2023/04/15 06:15:48;;;;;;;11.88;8.55;;;;;;;8.14;76.14;100923.47;5150501;27;20042;-68
2023/04/15 06:18:15;;;;;;;10.23;8.00;;;;;;;8.29;76.33;100929.34;5153333;27;20788;-68
2023/04/15 06:20:48;;;;;;;11.10;8.60;;;;;;;8.43;75.31;100931.69;5157823;27;20046;-67
2023/04/15 06:23:15;;;;;;;10.98;8.38;;;;;;;8.45;75.11;100940.41;5147015;27;20494;-70
2023/04/15 06:25:42;;;;;;;12.40;9.27;;;;;;;8.45;75.17;100940.41;5131187;27;20494;-69
2023/04/15 06:28:09;;;;;;;12.20;8.73;;;;;;;8.49;74.77;100948.22;5144760;27;20043;-70
2023/04/15 06:30:37;;;;;;;11.60;8.82;;;;;;;8.49;74.83;100957.91;5141127;27;20054;-67
2023/04/15 06:33:05;;;;;;;9.40;7.85;;;;;;;8.54;74.75;100958.66;5122167;27;20066;-67
2023/04/15 06:35:32;;;;;;;11.95;8.90;;;;;;;8.57;74.66;100965.59;5146520;27;20587;-67
2023/04/15 06:37:59;;;;;;;11.38;8.75;;;;;;;8.61;74.53;100967.28;5132181;27;20043;-68
2023/04/15 06:40:27;;;;;;;12.23;8.23;;;;;;;8.64;74.71;100968.09;5143686;27;20050;-68
2023/04/15 06:42:54;;;;;;;9.35;8.05;;;;;;;8.67;74.49;100964.50;5110572;27;20039;-68
2023/04/15 06:45:21;;;;;;;11.77;8.50;;;;;;;8.69;74.18;100975.88;5138822;27;20039;-68
2023/04/15 06:47:48;;;;;;;10.82;8.75;;;;;;;8.68;74.48;100980.28;5118063;27;20031;-67
2023/04/15 06:50:15;;;;;;;12.98;8.95;;;;;;;8.70;74.62;100982.88;5139669;27;20096;-68
2023/04/15 06:52:42;;;;;;;11.88;9.30;;;;;;;8.66;74.62;100987.31;5119606;27;20040;-68
2023/04/15 06:55:10;;;;;;;10.95;8.30;;;;;;;8.70;74.25;100999.47;5147647;27;20031;-68
2023/04/15 06:57:37;;;;;;;11.23;8.60;;;;;;;8.67;74.36;101003.94;5124283;27;20032;-68
2023/04/15 07:00:05;;;;;;;11.52;8.52;;;;;;;8.64;74.64;101010.13;5138200;27;20070;-68
2023/04/15 07:02:32;;;;;;;9.27;8.02;;;;;;;8.65;74.62;101009.25;5123160;27;20079;-68
2023/04/15 07:05:00;;;;;;;9.88;7.93;;;;;;;8.68;74.49;101011.81;5144297;27;20038;-68
2023/04/15 07:07:27;;;;;;;13.38;8.43;;;;;;;8.69;74.56;101010.91;5143895;27;20129;-68
2023/04/15 07:09:54;;;;;;;11.48;8.98;;;;;;;8.73;74.62;101013.47;5140218;27;20043;-69
2023/04/15 07:12:21;;;;;;;11.45;9.27;;;;;;;8.72;74.46;101020.50;5153303;27;20125;-69
2023/04/15 07:14:48;;;;;;;13.98;8.88;;;;;;;8.73;74.73;101022.25;5164794;27;20039;-68
2023/04/15 07:17:15;;;;;;;10.90;8.63;;;;;;;8.76;74.58;101022.16;5151061;27;20036;-68
2023/04/15 07:19:42;;;;;;;10.63;8.75;;;;;;;8.80;74.69;101033.50;5150040;27;20035;-69
2023/04/15 07:22:10;;;;;;;10.98;8.65;;;;;;;8.83;74.49;101028.16;5145995;27;20036;-68
2023/04/15 07:24:36;;;;;;;11.05;8.70;;;;;;;8.88;74.63;101035.97;5152069;27;20043;-68
2023/04/15 07:27:03;;;;;;;10.43;8.38;;;;;;;8.94;74.48;101030.59;5122948;27;20038;-68
2023/04/15 07:29:31;;;;;;;10.32;8.38;;;;;;;9.00;74.20;101046.22;5143658;27;20455;-68
2023/04/15 07:31:58;;;;;;;11.52;8.70;;;;;;;9.04;74.11;101044.41;5125226;27;20455;-69
2023/04/15 07:34:25;;;;;;;11.40;8.35;;;;;;;9.12;74.01;101047.72;5148110;27;20146;-69
2023/04/15 07:36:52;;;;;;;10.35;7.93;;;;;;;9.17;73.88;101052.00;5148484;27;20100;-68
2023/04/15 07:39:19;;;;;;;11.90;8.23;;;;;;;9.28;73.51;101057.06;5127651;27;20050;-70
2023/04/15 07:41:46;;;;;;;9.07;8.05;;;;;;;9.38;73.10;101055.06;5104227;27;20032;-70
2023/04/15 07:44:13;;;;;;;10.85;8.20;;;;;;;9.44;72.32;101054.94;5125744;27;20032;-69
2023/04/15 07:46:40;;;;;;;9.80;7.85;;;;;;;9.52;72.31;101062.66;5116917;27;20073;-70
2023/04/15 07:49:08;;;;;;;10.27;6.47;;;;;;;9.61;71.75;101062.44;5117406;27;20036;-70
2023/04/15 07:51:36;;;;;;;8.77;6.25;;;;;;;9.71;70.26;101060.47;5113791;27;20039;-68
2023/04/15 07:54:03;;;;;;;6.80;5.50;;;;;;;9.79;69.38;101061.16;5122771;27;20616;-69
2023/04/15 07:56:30;;;;;;;8.23;5.65;;;;;;;9.91;69.43;101067.03;5124798;27;20036;-69
2023/04/15 07:58:57;;;;;;;7.38;5.70;;;;;;;10.01;68.83;101060.66;5130907;27;20043;-69
2023/04/15 08:01:24;;;;;;;6.85;5.50;;;;;;;10.14;68.26;101065.63;5129448;27;20031;-69
2023/04/15 08:03:52;;;;;;;7.30;5.20;;;;;;;10.27;67.91;101074.97;5109705;27;20148;-69
2023/04/15 08:06:19;;;;;;;7.97;5.40;;;;;;;10.41;68.23;101078.13;5128143;27;20124;-70
2023/04/15 08:08:47;;;;;;;8.88;5.30;;;;;;;10.59;67.14;101081.16;5119683;27;20040;-70
2023/04/15 08:11:14;;;;;;;6.90;5.35;;;;;;;10.72;66.31;101079.94;5116930;27;20081;-69
2023/04/15 08:13:41;;;;;;;7.20;5.78;;;;;;;10.79;66.26;101092.94;5128321;27;20038;-70
2023/04/15 08:16:24;;;;;;;7.07;5.80;;;;;;;10.87;65.61;101089.22;5127616;27;20047;-70
2023/04/15 08:18:54;;;;;;;9.18;6.65;;;;;;;10.89;66.21;101086.53;5125779;27;20039;-69
2023/04/15 08:21:24;;;;;;;10.57;7.18;;;;;;;10.89;65.95;101091.78;5129192;27;20608;-69
2023/04/15 08:23:55;;;;;;;8.60;6.57;;;;;;;10.91;66.20;101094.41;5122153;27;20054;-69
2023/04/15 08:26:22;;;;;;;9.60;7.07;;;;;;;10.94;66.53;101089.03;5115849;27;20042;-69
2023/04/15 08:28:50;;;;;;;10.18;6.70;;;;;;;11.03;66.77;101092.28;5123356;27;20090;-69
2023/04/15 08:31:18;;;;;;;8.98;6.68;;;;;;;11.23;65.02;101098.78;5123847;27;20044;-70
2023/04/15 08:33:45;;;;;;;8.63;6.30;;;;;;;11.31;64.12;101096.75;5104141;27;20119;-69
2023/04/15 08:36:12;;;;;;;7.40;5.28;;;;;;;11.38;63.05;101094.81;5122980;27;20048;-72
2023/04/15 08:38:40;;;;;;;6.40;4.63;;;;;;;11.41;62.69;101104.41;5095537;27;20044;-70
2023/04/15 08:41:22;;;;;;;5.75;4.70;;;;;;;11.55;61.33;101104.88;5119753;27;20039;-71
2023/04/15 08:43:58;;;;;;;7.22;4.85;;;;;;;11.57;61.36;101107.47;5127066;27;20035;-69
2023/04/15 08:46:25;;;;;;;5.18;3.42;;;;;;;11.63;60.15;101115.22;5128805;27;20035;-70
2023/04/15 08:48:57;;;;;;;4.97;3.67;;;;;;;11.68;59.13;101107.16;5148108;27;20399;-70
2023/04/15 08:51:25;;;;;;;5.05;3.85;;;;;;;11.65;59.54;101118.66;5130918;27;21114;-71
2023/04/15 08:53:52;;;;;;;8.75;3.50;;;;;;;11.69;59.43;101119.44;5139028;27;20043;-70
2023/04/15 08:56:25;;;;;;;5.72;4.03;;;;;;;11.72;60.10;101122.84;5135223;27;20031;-70
2023/04/15 08:58:53;;;;;;;4.33;3.67;;;;;;;11.83;61.15;101125.16;5114350;27;20527;-70
2023/04/15 09:01:21;;;;;;;7.15;4.47;;;;;;;12.02;60.52;101121.97;5146684;27;20038;-70
2023/04/15 09:03:53;;;;;;;6.53;4.03;;;;;;;12.10;58.56;101136.66;5147954;27;20086;-70
2023/04/15 09:06:21;;;;;;;5.30;3.75;;;;;;;12.09;57.30;101140.22;5127981;27;20035;-69
2023/04/15 09:08:50;;;;;;;5.35;3.80;;;;;;;11.96;58.23;101138.84;5138401;27;20050;-69
2023/04/15 09:11:19;;;;;;;4.40;3.83;;;;;;;11.94;58.50;101138.91;5117621;27;20036;-69
2023/04/15 09:13:48;;;;;;;5.90;4.32;;;;;;;12.02;58.77;101148.38;5130335;27;20036;-69
2023/04/15 09:16:15;;;;;;;5.85;4.95;;;;;;;12.06;59.46;101145.59;5142440;27;20082;-70
2023/04/15 09:18:42;;;;;;;6.88;4.75;;;;;;;12.06;59.75;101150.03;5156036;27;20043;-69
2023/04/15 09:21:12;;;;;;;5.43;4.70;;;;;;;12.14;59.86;101152.44;5135704;27;20546;-70
2023/04/15 09:23:58;;;;;;;5.72;4.57;;;;;;;12.23;59.65;101160.06;5110634;27;20046;-70
2023/04/15 09:26:44;;;;;;;5.60;4.22;;;;;;;12.26;59.35;101165.22;5129471;27;20039;-70
2023/04/15 09:29:12;;;;;;;6.05;3.40;;;;;;;12.46;57.74;101166.38;5130765;27;20911;-70
2023/04/15 09:31:41;;;;;;;4.57;3.88;;;;;;;12.44;57.52;101166.41;5140067;27;20039;-70
2023/04/15 09:34:08;;;;;;;5.63;3.75;;;;;;;12.45;57.41;101164.66;5148337;27;20031;-70
2023/04/15 09:36:51;;;;;;;5.72;3.92;;;;;;;12.47;57.84;101176.03;5146145;27;20490;-70
2023/04/15 09:39:19;;;;;;;4.95;4.30;;;;;;;12.48;58.33;101169.81;5148846;27;20578;-69
2023/04/15 09:41:46;;;;;;;5.18;3.67;;;;;;;12.59;58.42;101170.34;5113157;27;20035;-70
2023/04/15 09:44:25;;;;;;;5.65;4.30;;;;;;;12.63;58.54;101171.09;5124219;27;20499;-70
2023/04/15 09:46:52;;;;;;;4.97;3.85;;;;;;;12.74;58.27;101175.13;5129424;27;20123;-70
2023/04/15 09:49:19;;;;;;;5.50;3.90;;;;;;;12.92;57.82;101182.50;5122402;27;20494;-70
2023/04/15 09:51:48;;;;;;;5.75;4.45;;;;;;;12.94;57.28;101180.63;5114913;27;20059;-69
2023/04/15 09:54:38;;;;;;;6.65;4.43;;;;;;;13.04;57.61;101185.56;5143819;27;20119;-70
2023/04/15 09:57:08;;;;;;;5.78;4.38;;;;;;;13.13;57.95;101187.00;5124570;27;20053;-71
2023/04/15 09:59:35;;;;;;;6.85;4.13;;;;;;;13.30;56.56;101196.13;5135164;27;20046;-69
2023/04/15 10:02:08;;;;;;;4.70;3.50;;;;;;;13.22;56.13;101192.91;5145583;27;20046;-71
2023/04/15 10:04:40;;;;;;;4.13;3.38;;;;;;;13.15;56.56;101190.47;5128420;27;20502;-71
2023/04/15 10:07:08;;;;;;;7.15;3.88;;;;;;;13.16;55.81;101188.69;5134745;27;20069;-69
2023/04/15 10:09:38;;;;;;;4.45;3.40;;;;;;;13.10;56.80;101189.78;5151788;27;20027;-70
2023/04/15 10:12:06;;;;;;;3.40;2.40;;;;;;;13.33;55.23;101201.31;5131552;27;20065;-70
2023/04/15 10:14:37;;;;;;;4.28;3.05;;;;;;;13.29;54.63;101203.19;5143271;27;20036;-70
2023/04/15 10:17:09;;;;;;;4.22;3.47;;;;;;;13.26;55.05;101197.16;5136562;27;20039;-70
2023/04/15 10:19:37;;;;;;;4.75;3.40;;;;;;;13.18;55.63;101203.59;5146571;27;20043;-70
2023/04/15 10:22:05;;;;;;;4.72;3.67;;;;;;;13.16;56.25;101205.44;5134739;27;20038;-70
2023/04/15 10:24:33;;;;;;;5.03;4.05;;;;;;;13.23;56.80;101207.88;5136269;27;20884;-70
2023/04/15 10:27:03;;;;;;;6.07;3.95;;;;;;;13.34;57.38;101205.69;5144966;27;20027;-70
2023/04/15 10:29:30;;;;;;;6.80;4.07;;;;;;;13.59;56.42;101216.28;5127723;27;20513;-70
2023/04/15 10:32:01;;;;;;;5.15;4.05;;;;;;;13.63;56.56;101204.66;5136881;27;20098;-69
2023/04/15 10:34:31;;;;;;;4.45;3.17;;;;;;;13.72;55.84;101207.88;5142851;27;20502;-71
2023/04/15 10:37:02;;;;;;;4.40;3.40;;;;;;;13.87;55.43;101220.56;5145461;27;20267;-71
2023/04/15 10:39:36;;;;;;;3.65;3.13;;;;;;;14.01;54.67;101221.78;5141215;27;20051;-69
2023/04/15 10:42:18;;;;;;;4.13;3.17;;;;;;;14.20;54.64;101224.59;5126779;27;20100;-70
2023/04/15 10:44:51;;;;;;;3.88;3.03;;;;;;;14.36;54.01;101222.22;5121144;27;20039;-70
2023/04/15 10:47:20;;;;;;;5.53;3.00;;;;;;;14.33;53.16;101223.22;5147778;27;20039;-70
2023/04/15 10:49:59;;;;;;;4.60;3.03;;;;;;;14.29;52.73;101226.88;5132731;27;20077;-70
2023/04/15 10:52:28;;;;;;;4.07;3.03;;;;;;;14.14;52.49;101225.72;5158400;27;20035;-70
2023/04/15 10:55:23;;;;;;;3.55;2.78;;;;;;;14.00;52.26;101228.91;5145779;27;20100;-70
2023/04/15 10:57:58;;;;;;;4.55;2.95;;;;;;;13.94;52.92;101230.00;5130265;27;20121;-70
2023/04/15 11:00:31;;;;;;;4.07;2.55;;;;;;;14.07;52.04;101230.38;5115949;27;20032;-71
2023/04/15 11:03:06;;;;;;;3.45;2.90;;;;;;;14.12;52.52;101232.84;5133194;27;20119;-71
2023/04/15 11:05:53;;;;;;;3.28;2.50;;;;;;;14.27;51.99;101242.88;5146382;27;20051;-71
2023/04/15 11:08:55;;;;;;;4.45;2.85;;;;;;;14.24;53.22;101244.78;5147480;27;20129;-70
2023/04/15 11:11:22;;;;;;;3.65;2.90;;;;;;;14.38;51.73;101238.94;5128595;27;20124;-70
2023/04/15 11:13:51;;;;;;;4.78;2.88;;;;;;;14.35;52.57;101247.00;5151614;27;20036;-70
2023/04/15 11:16:18;;;;;;;4.40;2.78;;;;;;;14.39;52.68;101238.88;5131962;27;20042;-71
2023/04/15 11:18:55;;;;;;;4.88;2.72;;;;;;;14.50;51.79;101245.53;5147520;27;20792;-71
2023/04/15 11:21:27;;;;;;;4.75;2.47;;;;;;;14.68;50.30;101244.81;5119846;27;20050;-70
2023/04/15 11:23:54;;;;;;;2.60;2.40;;;;;;;14.84;49.61;101250.34;5135065;27;20031;-71
2023/04/15 11:26:26;;;;;;;4.32;2.78;;;;;;;14.73;50.14;101245.50;5129106;27;20039;-71
2023/04/15 11:28:53;;;;;;;3.13;2.45;;;;;;;14.53;50.81;101253.38;5124245;27;20040;-70
2023/04/15 11:31:22;;;;;;;4.15;2.88;;;;;;;14.32;51.48;101255.94;5147414;27;20047;-70
2023/04/15 11:33:54;;;;;;;4.35;3.08;;;;;;;14.32;51.34;101258.59;5139067;27;20578;-70
2023/04/15 11:36:26;;;;;;;2.90;2.60;;;;;;;14.39;51.65;101264.53;5126025;27;20084;-71